sensor_id;sensor_type;location;lat;lon;timestamp;pressure;altitude;pressure_sealevel;temperature;humidity
46598;BME280;32318;48.858;8.252;2023-03-14T00:03:32;98581.09;;;11.78;76.44
46598;BME280;32318;48.858;8.252;2023-03-14T00:11:32;98583.97;;;11.83;75.72
46598;BME280;32318;48.858;8.252;2023-03-14T00:19:33;98566.91;;;11.77;76.24
46598;BME280;32318;48.858;8.252;2023-03-14T00:27:34;98567.94;;;11.76;75.97
46598;BME280;32318;48.858;8.252;2023-03-14T00:35:34;98563.63;;;11.75;76.07
46598;BME280;32318;48.858;8.252;2023-03-14T00:43:34;98590.97;;;11.77;76.33
46598;BME280;32318;48.858;8.252;2023-03-14T00:51:35;98612.78;;;11.74;77.00
46598;BME280;32318;48.858;8.252;2023-03-14T00:59:35;98618.97;;;11.68;76.95
46598;BME280;32318;48.858;8.252;2023-03-14T01:07:36;98601.09;;;11.62;77.82
46598;BME280;32318;48.858;8.252;2023-03-14T01:15:37;98584.09;;;11.50;78.59
46598;BME280;32318;48.858;8.252;2023-03-14T01:23:38;98572.16;;;11.45;78.30
46598;BME280;32318;48.858;8.252;2023-03-14T01:31:38;98553.28;;;11.40;78.31
46598;BME280;32318;48.858;8.252;2023-03-14T01:39:38;98536.00;;;11.36;78.17
46598;BME280;32318;48.858;8.252;2023-03-14T01:47:38;98509.31;;;11.36;76.92
46598;BME280;32318;48.858;8.252;2023-03-14T01:55:39;98501.91;;;11.32;76.92
46598;BME280;32318;48.858;8.252;2023-03-14T02:03:47;98516.34;;;11.24;76.36
46598;BME280;32318;48.858;8.252;2023-03-14T02:11:49;98517.78;;;11.20;76.04
46598;BME280;32318;48.858;8.252;2023-03-14T02:19:52;98500.34;;;11.17;76.17
46598;BME280;32318;48.858;8.252;2023-03-14T02:27:55;98506.94;;;11.14;75.89
46598;BME280;32318;48.858;8.252;2023-03-14T02:36:05;98488.47;;;11.06;76.04
46598;BME280;32318;48.858;8.252;2023-03-14T02:44:07;98481.09;;;11.02;75.30
46598;BME280;32318;48.858;8.252;2023-03-14T02:52:07;98478.25;;;10.96;75.64
46598;BME280;32318;48.858;8.252;2023-03-14T03:00:08;98468.78;;;10.94;74.59
46598;BME280;32318;48.858;8.252;2023-03-14T03:08:09;98445.81;;;10.86;74.24
46598;BME280;32318;48.858;8.252;2023-03-14T03:16:09;98421.97;;;10.85;73.65
46598;BME280;32318;48.858;8.252;2023-03-14T03:24:09;98402.66;;;10.89;73.58
46598;BME280;32318;48.858;8.252;2023-03-14T03:32:10;98381.28;;;10.89;73.33
46598;BME280;32318;48.858;8.252;2023-03-14T03:40:10;98385.03;;;10.81;72.75
46598;BME280;32318;48.858;8.252;2023-03-14T03:48:10;98364.09;;;10.78;71.90
46598;BME280;32318;48.858;8.252;2023-03-14T03:56:11;98337.00;;;10.81;71.21
46598;BME280;32318;48.858;8.252;2023-03-14T04:04:11;98349.94;;;10.78;71.29
46598;BME280;32318;48.858;8.252;2023-03-14T04:12:11;98346.88;;;10.74;71.32
46598;BME280;32318;48.858;8.252;2023-03-14T04:20:12;98331.13;;;10.66;71.10
46598;BME280;32318;48.858;8.252;2023-03-14T04:28:13;98302.59;;;10.60;71.15
46598;BME280;32318;48.858;8.252;2023-03-14T04:36:13;98301.16;;;10.57;71.16
46598;BME280;32318;48.858;8.252;2023-03-14T04:44:14;98314.91;;;10.61;70.64
46598;BME280;32318;48.858;8.252;2023-03-14T04:52:15;98294.09;;;10.76;70.22
46598;BME280;32318;48.858;8.252;2023-03-14T05:00:15;98291.88;;;10.73;69.98
46598;BME280;32318;48.858;8.252;2023-03-14T05:08:18;98282.81;;;10.74;70.05
46598;BME280;32318;48.858;8.252;2023-03-14T05:16:18;98289.19;;;10.73;69.79
46598;BME280;32318;48.858;8.252;2023-03-14T05:24:18;98284.66;;;10.74;69.81
46598;BME280;32318;48.858;8.252;2023-03-14T05:32:19;98269.72;;;10.66;69.55
46598;BME280;32318;48.858;8.252;2023-03-14T05:40:19;98269.53;;;10.61;70.25
46598;BME280;32318;48.858;8.252;2023-03-14T05:48:19;98262.81;;;10.51;70.44
46598;BME280;32318;48.858;8.252;2023-03-14T05:56:21;98253.41;;;10.42;70.06
46598;BME280;32318;48.858;8.252;2023-03-14T06:04:21;98241.31;;;10.40;70.37
46598;BME280;32318;48.858;8.252;2023-03-14T06:12:22;98222.63;;;10.33;70.37
46598;BME280;32318;48.858;8.252;2023-03-14T06:20:22;98235.78;;;10.34;70.33
46598;BME280;32318;48.858;8.252;2023-03-14T06:28:23;98226.72;;;10.42;69.98
46598;BME280;32318;48.858;8.252;2023-03-14T06:36:23;98227.31;;;10.51;69.70
46598;BME280;32318;48.858;8.252;2023-03-14T06:44:23;98222.16;;;10.56;70.26
46598;BME280;32318;48.858;8.252;2023-03-14T06:52:23;98221.09;;;10.64;70.19
46598;BME280;32318;48.858;8.252;2023-03-14T07:00:24;98221.69;;;10.66;69.78
46598;BME280;32318;48.858;8.252;2023-03-14T07:08:25;98227.34;;;10.76;69.71
46598;BME280;32318;48.858;8.252;2023-03-14T07:16:25;98233.50;;;10.83;69.44
46598;BME280;32318;48.858;8.252;2023-03-14T07:24:28;98236.66;;;10.99;68.95
46598;BME280;32318;48.858;8.252;2023-03-14T07:32:28;98252.53;;;11.19;68.03
46598;BME280;32318;48.858;8.252;2023-03-14T07:40:29;98273.75;;;11.39;68.50
46598;BME280;32318;48.858;8.252;2023-03-14T07:48:29;98272.28;;;11.43;68.13
46598;BME280;32318;48.858;8.252;2023-03-14T07:56:29;98283.94;;;11.49;66.85
46598;BME280;32318;48.858;8.252;2023-03-14T08:04:30;98301.16;;;11.60;67.45
46598;BME280;32318;48.858;8.252;2023-03-14T08:12:30;98305.00;;;11.64;66.50
46598;BME280;32318;48.858;8.252;2023-03-14T08:20:33;98315.63;;;11.71;67.71
46598;BME280;32318;48.858;8.252;2023-03-14T08:28:33;98311.97;;;11.65;67.83
46598;BME280;32318;48.858;8.252;2023-03-14T08:36:34;98301.47;;;11.70;67.58
46598;BME280;32318;48.858;8.252;2023-03-14T08:44:34;98310.34;;;11.64;67.13
46598;BME280;32318;48.858;8.252;2023-03-14T08:52:35;98316.28;;;11.66;66.49
46598;BME280;32318;48.858;8.252;2023-03-14T09:00:35;98327.38;;;11.70;66.69
46598;BME280;32318;48.858;8.252;2023-03-14T09:08:36;98321.47;;;11.86;66.58
46598;BME280;32318;48.858;8.252;2023-03-14T09:16:36;98313.56;;;11.98;64.85
46598;BME280;32318;48.858;8.252;2023-03-14T09:24:36;98319.16;;;12.15;64.37
46598;BME280;32318;48.858;8.252;2023-03-14T09:32:37;98330.31;;;12.31;64.89
46598;BME280;32318;48.858;8.252;2023-03-14T09:40:38;98349.34;;;12.22;63.85
46598;BME280;32318;48.858;8.252;2023-03-14T09:48:39;98370.44;;;11.87;69.23
46598;BME280;32318;48.858;8.252;2023-03-14T09:56:40;98380.69;;;11.65;72.04
46598;BME280;32318;48.858;8.252;2023-03-14T10:04:42;98381.38;;;11.53;71.96
46598;BME280;32318;48.858;8.252;2023-03-14T10:12:46;98374.69;;;11.37;73.27
46598;BME280;32318;48.858;8.252;2023-03-14T10:20:48;98365.13;;;11.23;76.76
46598;BME280;32318;48.858;8.252;2023-03-14T10:28:53;98386.31;;;11.18;77.92
46598;BME280;32318;48.858;8.252;2023-03-14T10:36:56;98405.91;;;11.05;78.10
46598;BME280;32318;48.858;8.252;2023-03-14T10:45:05;98423.38;;;11.01;79.80
46598;BME280;32318;48.858;8.252;2023-03-14T10:53:10;98439.16;;;11.02;80.88
46598;BME280;32318;48.858;8.252;2023-03-14T11:09:29;98494.94;;;10.45;83.54
46598;BME280;32318;48.858;8.252;2023-03-14T11:17:46;98532.69;;;10.22;84.44
46598;BME280;32318;48.858;8.252;2023-03-14T11:25:57;98562.00;;;10.15;84.04
46598;BME280;32318;48.858;8.252;2023-03-14T11:34:25;98611.00;;;10.00;82.31
46598;BME280;32318;48.858;8.252;2023-03-14T11:42:28;98654.59;;;9.79;79.32
46598;BME280;32318;48.858;8.252;2023-03-14T11:50:30;98704.44;;;9.50;76.10
46598;BME280;32318;48.858;8.252;2023-03-14T11:58:33;98721.28;;;9.57;72.95
46598;BME280;32318;48.858;8.252;2023-03-14T12:06:49;98767.34;;;9.80;70.25
46598;BME280;32318;48.858;8.252;2023-03-14T12:14:55;98784.53;;;10.05;67.58
46598;BME280;32318;48.858;8.252;2023-03-14T12:23:02;98797.34;;;10.24;65.11
46598;BME280;32318;48.858;8.252;2023-03-14T12:39:46;98837.69;;;10.42;60.84
46598;BME280;32318;48.858;8.252;2023-03-14T12:48:01;98867.44;;;10.46;58.43
46598;BME280;32318;48.858;8.252;2023-03-14T13:04:10;98876.06;;;10.41;53.59
46598;BME280;32318;48.858;8.252;2023-03-14T13:12:13;98890.69;;;10.24;53.46
46598;BME280;32318;48.858;8.252;2023-03-14T13:28:30;98960.03;;;10.24;51.70
46598;BME280;32318;48.858;8.252;2023-03-14T13:36:31;98994.53;;;10.25;48.54
46598;BME280;32318;48.858;8.252;2023-03-14T13:44:34;98996.94;;;10.20;49.41
46598;BME280;32318;48.858;8.252;2023-03-14T13:52:36;99023.19;;;10.16;48.37
46598;BME280;32318;48.858;8.252;2023-03-14T14:00:37;99034.94;;;10.44;48.46
46598;BME280;32318;48.858;8.252;2023-03-14T14:08:40;99058.28;;;10.63;48.12
46598;BME280;32318;48.858;8.252;2023-03-14T14:16:43;99066.47;;;10.83;46.24
46598;BME280;32318;48.858;8.252;2023-03-14T14:24:44;99084.09;;;10.85;46.19
46598;BME280;32318;48.858;8.252;2023-03-14T14:32:47;99104.50;;;10.64;47.11
46598;BME280;32318;48.858;8.252;2023-03-14T14:40:50;99111.53;;;10.72;47.63
46598;BME280;32318;48.858;8.252;2023-03-14T14:48:55;99110.63;;;10.86;47.46
46598;BME280;32318;48.858;8.252;2023-03-14T14:57:02;99113.25;;;10.79;46.62
46598;BME280;32318;48.858;8.252;2023-03-14T15:05:03;99139.00;;;10.94;47.70
46598;BME280;32318;48.858;8.252;2023-03-14T15:13:03;99149.88;;;10.64;48.32
46598;BME280;32318;48.858;8.252;2023-03-14T15:21:04;99147.81;;;10.88;48.99
46598;BME280;32318;48.858;8.252;2023-03-14T15:29:04;99142.84;;;10.85;48.55
46598;BME280;32318;48.858;8.252;2023-03-14T15:37:11;99169.59;;;10.91;48.65
46598;BME280;32318;48.858;8.252;2023-03-14T15:45:12;99167.50;;;10.87;49.62
46598;BME280;32318;48.858;8.252;2023-03-14T15:53:13;99186.72;;;10.54;50.79
46598;BME280;32318;48.858;8.252;2023-03-14T16:01:15;99192.09;;;10.24;51.31
46598;BME280;32318;48.858;8.252;2023-03-14T16:09:16;99232.53;;;10.05;52.46
46598;BME280;32318;48.858;8.252;2023-03-14T16:17:16;99246.97;;;9.81;54.82
46598;BME280;32318;48.858;8.252;2023-03-14T16:25:17;99280.16;;;9.25;59.41
46598;BME280;32318;48.858;8.252;2023-03-14T16:33:18;99275.94;;;8.61;62.80
46598;BME280;32318;48.858;8.252;2023-03-14T16:41:19;99297.69;;;8.25;67.26
46598;BME280;32318;48.858;8.252;2023-03-14T16:49:19;99303.44;;;8.06;66.47
46598;BME280;32318;48.858;8.252;2023-03-14T16:57:19;99316.88;;;7.96;66.81
46598;BME280;32318;48.858;8.252;2023-03-14T17:05:20;99343.19;;;7.74;68.88
46598;BME280;32318;48.858;8.252;2023-03-14T17:13:20;99351.00;;;7.59;71.15
46598;BME280;32318;48.858;8.252;2023-03-14T17:21:24;99349.50;;;7.48;70.87
46598;BME280;32318;48.858;8.252;2023-03-14T17:29:25;99375.09;;;7.49;72.64
46598;BME280;32318;48.858;8.252;2023-03-14T17:37:25;99387.88;;;7.62;71.88
46598;BME280;32318;48.858;8.252;2023-03-14T17:45:25;99410.75;;;7.63;73.02
46598;BME280;32318;48.858;8.252;2023-03-14T17:53:26;99448.59;;;7.49;72.49
46598;BME280;32318;48.858;8.252;2023-03-14T18:01:26;99455.41;;;7.51;72.48
46598;BME280;32318;48.858;8.252;2023-03-14T18:09:26;99461.88;;;7.49;71.45
46598;BME280;32318;48.858;8.252;2023-03-14T18:17:27;99476.16;;;7.48;72.52
46598;BME280;32318;48.858;8.252;2023-03-14T18:25:27;99481.81;;;7.45;73.36
46598;BME280;32318;48.858;8.252;2023-03-14T18:33:28;99493.41;;;7.44;73.83
46598;BME280;32318;48.858;8.252;2023-03-14T18:41:29;99501.91;;;7.47;72.56
46598;BME280;32318;48.858;8.252;2023-03-14T18:49:29;99502.41;;;7.51;72.04
46598;BME280;32318;48.858;8.252;2023-03-14T18:57:29;99516.47;;;7.43;71.05
46598;BME280;32318;48.858;8.252;2023-03-14T19:05:30;99526.94;;;7.36;71.86
46598;BME280;32318;48.858;8.252;2023-03-14T19:13:31;99538.69;;;7.34;70.92
46598;BME280;32318;48.858;8.252;2023-03-14T19:21:33;99544.50;;;7.37;71.55
46598;BME280;32318;48.858;8.252;2023-03-14T19:29:34;99556.78;;;7.38;70.77
46598;BME280;32318;48.858;8.252;2023-03-14T19:37:41;99552.34;;;7.39;69.50
46598;BME280;32318;48.858;8.252;2023-03-14T19:45:41;99560.44;;;7.37;68.98
46598;BME280;32318;48.858;8.252;2023-03-14T19:53:42;99567.41;;;7.38;68.14
46598;BME280;32318;48.858;8.252;2023-03-14T20:01:43;99578.69;;;7.32;67.43
46598;BME280;32318;48.858;8.252;2023-03-14T20:09:47;99600.91;;;7.31;67.89
46598;BME280;32318;48.858;8.252;2023-03-14T20:17:48;99612.22;;;7.33;67.69
46598;BME280;32318;48.858;8.252;2023-03-14T20:25:53;99630.28;;;7.30;67.90
46598;BME280;32318;48.858;8.252;2023-03-14T20:33:53;99642.84;;;7.19;68.06
46598;BME280;32318;48.858;8.252;2023-03-14T20:41:54;99656.31;;;7.00;70.10
46598;BME280;32318;48.858;8.252;2023-03-14T20:49:54;99660.47;;;6.76;71.47
46598;BME280;32318;48.858;8.252;2023-03-14T20:57:54;99689.22;;;6.63;72.36
46598;BME280;32318;48.858;8.252;2023-03-14T21:05:55;99695.25;;;6.55;73.39
46598;BME280;32318;48.858;8.252;2023-03-14T21:13:55;99715.78;;;6.53;73.01
46598;BME280;32318;48.858;8.252;2023-03-14T21:21:56;99717.47;;;6.54;74.20
46598;BME280;32318;48.858;8.252;2023-03-14T21:29:57;99721.94;;;6.53;72.96
46598;BME280;32318;48.858;8.252;2023-03-14T21:37:57;99774.75;;;6.47;71.16
46598;BME280;32318;48.858;8.252;2023-03-14T21:45:58;99800.41;;;5.80;71.28
46598;BME280;32318;48.858;8.252;2023-03-14T21:53:58;99813.03;;;5.10;74.04
46598;BME280;32318;48.858;8.252;2023-03-14T22:01:59;99850.56;;;4.64;75.71
46598;BME280;32318;48.858;8.252;2023-03-14T22:10:01;99913.75;;;4.58;76.80
46598;BME280;32318;48.858;8.252;2023-03-14T22:18:03;99941.47;;;4.63;77.12
46598;BME280;32318;48.858;8.252;2023-03-14T22:26:03;99935.16;;;4.54;75.62
46598;BME280;32318;48.858;8.252;2023-03-14T22:34:04;99943.56;;;4.69;76.01
46598;BME280;32318;48.858;8.252;2023-03-14T22:42:04;99966.88;;;4.85;78.25
46598;BME280;32318;48.858;8.252;2023-03-14T22:50:05;99974.75;;;5.16;78.59
46598;BME280;32318;48.858;8.252;2023-03-14T22:58:05;99978.38;;;5.25;78.31
46598;BME280;32318;48.858;8.252;2023-03-14T23:06:06;100011.97;;;5.25;79.44
46598;BME280;32318;48.858;8.252;2023-03-14T23:14:06;100040.50;;;5.11;77.95
46598;BME280;32318;48.858;8.252;2023-03-14T23:22:06;100049.00;;;5.15;78.48
46598;BME280;32318;48.858;8.252;2023-03-14T23:30:11;100063.69;;;5.29;77.74
46598;BME280;32318;48.858;8.252;2023-03-14T23:38:11;100070.78;;;5.38;77.40
46598;BME280;32318;48.858;8.252;2023-03-14T23:46:14;100071.50;;;5.40;78.17
46598;BME280;32318;48.858;8.252;2023-03-14T23:54:14;100078.03;;;5.36;78.41
